Thursday, April 17, 2014
01:14 UTC
  |  Log In   |  Register Free
Airport Search:

Lawrence Smith Memorial Airport
(KLRY)

Lawrence Smith Memorial Airport Diagram
No Airport Diagram Available

FAA data valid effective April 3, 2014 until May 29, 2014 (unless otherwise noted).

 
 
 
 
 
 
 
 
 
 
 
 
 
 

Current Aviation Weather for Lawrence Smith Memorial Airport (KLRY)

The most recent METAR observation for KLXT was updated at: 0053 UTC
METAR Summary (Translated METAR)
KLXT
170053Z AUTO 20011G21KT 10SM CLR 16/M01 A2991 RMK AO2 SLP128 T01561011
KMKC
(14.2 nm NW from KLXT)
170054Z 19013KT 10SM CLR 16/00 A2989 RMK AO2 SLP119 T01610000
TAF Summary (Translated TAF)
KMKC
(14.2 nm NW from KLXT)
161724Z 1618/1718 19022G31KT P6SM SCT150 FM162300 20014G22KT P6SM SCT070 FM170300 21010KT P6SM BKN060 FM170600 32012KT P6SM SCT060
  Airport Weather Conditions for KLRY

Current weather conditions are
not available for LRY


The nearest NOAA weather station
is at LXT, (21 nm NW from LRY)
  
 Current Weather at LXT
61° F
Fair
South winds at 15.0 mph
LXT NOAA Radar

Pressure: 29.90 in
Humidity: 32%
Wind: from the South at 15.0 gusting to 21.9 MPH (13 gusting to 19 KT)
Dew Point: 30.9°F
Visibility: 10.00 mi


Airport Weather Forecast for KLRY

Translated METAR and TAF for KLXT
Translated METAR for KLXT (0114 UTC 17 April 2014)
found at http://aviationweather.gov/adds/metars/
 
METAR text: KLXT 170053Z AUTO 20011G21KT 10SM CLR 16/M01 A2991 RMK AO2 SLP128 T01561011
Conditions at: KLXT (LEES SUMMIT MUNI, MO, US) observed 0053 UTC 17 April 2014
Temperature: 15.6°C (60°F)
Dewpoint: -1.1°C (30°F) [RH = 32%]
Pressure (altimeter): 29.91 inches Hg (1013.0 mb)
[Sea-level pressure: 1012.8 mb]
Winds: from the SSW (200 degrees) at 13 MPH (11 knots; 5.7 m/s)
gusting to 24 MPH (21 knots; 10.9 m/s)
Visibility: 10 or more miles (16+ km)
Ceiling: at least 12,000 feet AGL
Clouds: sky clear below 12,000 feet AGL
Weather: automated observation with no human augmentation;
there may or may not be significant weather present at this time
Translated TAF for KLXT

There is no translated TAF available for this airport

Find All Airport Services Find A Hotel Find A Rental Car Find A Golf Course Find A Restaurant $100 Hamburger



FBO's on the Field
FBO Company Facility Photos Services Transportation Aviation Fuel Prices: Prices include tax
Catering Weather Repair Courtesy Rental Type 100LL JetA JetA+ MOGAS 8087
 
City of Harrisonville

This FBO has not yet been rated
FS:Phillips66
Last Updated: Mar-25
Login to update fuel prices
SS:
Contact City of HarrisonvilleMore FBO Information
 
Add another FBO Facility Photos Catering Weather Repair Courtesy Rental Type 100LL JetA JetA+ MOGAS 8087
Services Transportation Aviation Fuel Prices: Prices include tax


GlobalAir.com Airport Resource Center model-print
model-print
model-print
model-print